AEE123 LGAV-LGTS
Flight info
| Callsign | AEE123 |
|---|---|
| Flight time | 0h 31m |
| Altitude | 30000 |
| Route | KRO UT162 NEVRA UT514 OSMOS |
| Aircraft | A320/M-SDE3FGHIRWY/LB1 |
Departure
| Time | 2026-05-04 11:55 |
|---|---|
| Airport | Athens Eleftherios Venizelos International Airport (LGAV) |
Arrival
| Time | 2026-05-04 12:27 |
|---|---|
| Airport | Thessaloniki Macedonia International Airport (LGTS) |
| Time | Latitude | Longitude | Altitude | Speed | Heading |
|---|---|---|---|---|---|
| 2026-05-04 11:19 | 37.93169 | 23.94320 | 304 ft | 0 kts | 217° |
| 2026-05-04 11:46 | 37.93185 | 23.94335 | 303 ft | 4 kts | 217° |
| 2026-05-04 11:47 | 37.93202 | 23.94352 | 302 ft | 4 kts | 215° |
| 2026-05-04 11:47 | 37.93225 | 23.94364 | 302 ft | 4 kts | 174° |
| 2026-05-04 11:47 | 37.93244 | 23.94353 | 302 ft | 1 kts | 127° |
| 2026-05-04 11:47 | 37.93245 | 23.94352 | 302 ft | 0 kts | 127° |
| 2026-05-04 11:49 | 37.93245 | 23.94353 | 302 ft | 1 kts | 127° |
| 2026-05-04 11:50 | 37.93231 | 23.94376 | 302 ft | 10 kts | 127° |
| 2026-05-04 11:50 | 37.93181 | 23.94460 | 301 ft | 14 kts | 127° |
| 2026-05-04 11:50 | 37.93116 | 23.94570 | 304 ft | 16 kts | 126° |
| 2026-05-04 11:50 | 37.93064 | 23.94657 | 301 ft | 7 kts | 134° |
| 2026-05-04 11:51 | 37.93008 | 23.94669 | 300 ft | 10 kts | 205° |
| 2026-05-04 11:51 | 37.92939 | 23.94607 | 301 ft | 14 kts | 217° |
| 2026-05-04 11:51 | 37.92875 | 23.94547 | 302 ft | 11 kts | 217° |
| 2026-05-04 11:51 | 37.92803 | 23.94478 | 304 ft | 15 kts | 217° |
| 2026-05-04 11:52 | 37.92726 | 23.94405 | 303 ft | 15 kts | 217° |
| 2026-05-04 11:52 | 37.92649 | 23.94332 | 303 ft | 14 kts | 217° |
| 2026-05-04 11:52 | 37.92558 | 23.94297 | 306 ft | 15 kts | 154° |
| 2026-05-04 11:52 | 37.92507 | 23.94375 | 307 ft | 8 kts | 126° |
| 2026-05-04 11:53 | 37.92498 | 23.94391 | 308 ft | 2 kts | 126° |
| 2026-05-04 11:53 | 37.92482 | 23.94419 | 309 ft | 7 kts | 125° |
| 2026-05-04 11:53 | 37.92517 | 23.94483 | 307 ft | 9 kts | 37° |
| 2026-05-04 11:53 | 37.92542 | 23.94507 | 307 ft | 0 kts | 37° |
| 2026-05-04 11:55 | 37.94708 | 23.96585 | 940 ft | 154 kts | 39° |
| 2026-05-04 11:55 | 37.95570 | 23.97420 | 1574 ft | 157 kts | 33° |
| 2026-05-04 11:56 | 37.96448 | 23.98268 | 2186 ft | 163 kts | 31° |
| 2026-05-04 11:56 | 37.97398 | 23.99168 | 2515 ft | 182 kts | 33° |
| 2026-05-04 11:56 | 37.98462 | 24.00208 | 2848 ft | 203 kts | 31° |
| 2026-05-04 11:56 | 37.99705 | 24.01250 | 3133 ft | 227 kts | 28° |
| 2026-05-04 11:57 | 38.01109 | 24.02375 | 3619 ft | 249 kts | 28° |
| 2026-05-04 11:57 | 38.02579 | 24.03555 | 4437 ft | 256 kts | 29° |
| 2026-05-04 11:57 | 38.04099 | 24.04789 | 5347 ft | 262 kts | 30° |
| 2026-05-04 11:57 | 38.05638 | 24.06052 | 6275 ft | 265 kts | 29° |
| 2026-05-04 11:58 | 38.07193 | 24.07332 | 7183 ft | 268 kts | 30° |
| 2026-05-04 11:58 | 38.08768 | 24.08632 | 8058 ft | 271 kts | 30° |
| 2026-05-04 11:58 | 38.10355 | 24.09944 | 8958 ft | 273 kts | 30° |
| 2026-05-04 11:58 | 38.11953 | 24.11267 | 9864 ft | 275 kts | 31° |
| 2026-05-04 11:59 | 38.13579 | 24.12614 | 10509 ft | 286 kts | 31° |
| 2026-05-04 11:59 | 38.15317 | 24.14051 | 10756 ft | 309 kts | 31° |
| 2026-05-04 11:59 | 38.17161 | 24.15576 | 10916 ft | 332 kts | 31° |
| 2026-05-04 11:59 | 38.19164 | 24.17234 | 11044 ft | 354 kts | 31° |
| 2026-05-04 12:00 | 38.21285 | 24.18993 | 11256 ft | 371 kts | 31° |
| 2026-05-04 12:00 | 38.23463 | 24.20809 | 11775 ft | 377 kts | 31° |
| 2026-05-04 12:00 | 38.25668 | 24.22651 | 12408 ft | 380 kts | 31° |
| 2026-05-04 12:00 | 38.27894 | 24.24508 | 13041 ft | 383 kts | 31° |
| 2026-05-04 12:01 | 38.30112 | 24.26360 | 13704 ft | 386 kts | 32° |
| 2026-05-04 12:01 | 38.32370 | 24.28242 | 14311 ft | 389 kts | 32° |
| 2026-05-04 12:02 | 38.47939 | 24.26453 | 17238 ft | 415 kts | 336° |
| 2026-05-04 12:03 | 38.50570 | 24.24899 | 17730 ft | 419 kts | 336° |
| 2026-05-04 12:03 | 38.53233 | 24.23333 | 18189 ft | 423 kts | 336° |
| 2026-05-04 12:03 | 38.55880 | 24.21778 | 18660 ft | 426 kts | 336° |
| 2026-05-04 12:03 | 38.58584 | 24.20194 | 19093 ft | 429 kts | 337° |
| 2026-05-04 12:04 | 38.61306 | 24.18602 | 19557 ft | 432 kts | 337° |
| 2026-05-04 12:04 | 38.64048 | 24.16997 | 19963 ft | 436 kts | 337° |
| 2026-05-04 12:04 | 38.66813 | 24.15379 | 20377 ft | 439 kts | 336° |
| 2026-05-04 12:04 | 38.69602 | 24.13741 | 20760 ft | 442 kts | 336° |
| 2026-05-04 12:05 | 38.72407 | 24.12087 | 21152 ft | 445 kts | 337° |
| 2026-05-04 12:05 | 38.75229 | 24.10420 | 21528 ft | 448 kts | 337° |
| 2026-05-04 12:05 | 38.78065 | 24.08743 | 21903 ft | 450 kts | 337° |
| 2026-05-04 12:05 | 38.80920 | 24.07058 | 22267 ft | 453 kts | 336° |
| 2026-05-04 12:06 | 38.83790 | 24.05360 | 22574 ft | 457 kts | 336° |
| 2026-05-04 12:06 | 38.86690 | 24.03640 | 22878 ft | 460 kts | 336° |
| 2026-05-04 12:06 | 38.89604 | 24.01912 | 23209 ft | 463 kts | 337° |
| 2026-05-04 12:06 | 38.92504 | 24.00197 | 23550 ft | 465 kts | 336° |
| 2026-05-04 12:07 | 38.95446 | 23.98453 | 23859 ft | 468 kts | 337° |
| 2026-05-04 12:07 | 38.98411 | 23.96695 | 24185 ft | 469 kts | 336° |
| 2026-05-04 12:07 | 39.01374 | 23.94938 | 24644 ft | 467 kts | 336° |
| 2026-05-04 12:07 | 39.04323 | 23.93188 | 25141 ft | 464 kts | 336° |
| 2026-05-04 12:08 | 39.07257 | 23.91444 | 25615 ft | 463 kts | 336° |
| 2026-05-04 12:08 | 39.10173 | 23.89704 | 26109 ft | 461 kts | 336° |
| 2026-05-04 12:08 | 39.13034 | 23.87989 | 26623 ft | 459 kts | 336° |
| 2026-05-04 12:08 | 39.15920 | 23.86260 | 27150 ft | 457 kts | 336° |
| 2026-05-04 12:09 | 39.18799 | 23.84537 | 27691 ft | 455 kts | 336° |
| 2026-05-04 12:09 | 39.21663 | 23.82821 | 28059 ft | 454 kts | 336° |
| 2026-05-04 12:09 | 39.27433 | 23.79357 | 28137 ft | 461 kts | 336° |
| 2026-05-04 12:10 | 39.33302 | 23.75834 | 28144 ft | 467 kts | 336° |
| 2026-05-04 12:10 | 39.39159 | 23.72318 | 28148 ft | 459 kts | 336° |
| 2026-05-04 12:11 | 39.44919 | 23.68851 | 28144 ft | 456 kts | 336° |
| 2026-05-04 12:11 | 39.47797 | 23.67116 | 28017 ft | 456 kts | 336° |
| 2026-05-04 12:11 | 39.50670 | 23.65381 | 27746 ft | 457 kts | 336° |
| 2026-05-04 12:12 | 39.53567 | 23.63629 | 27480 ft | 462 kts | 336° |
| 2026-05-04 12:12 | 39.56486 | 23.61862 | 26858 ft | 463 kts | 336° |
| 2026-05-04 12:12 | 39.59416 | 23.60085 | 25618 ft | 468 kts | 336° |
| 2026-05-04 12:12 | 39.62386 | 23.58286 | 24413 ft | 473 kts | 336° |
| 2026-05-04 12:13 | 39.65378 | 23.56471 | 23143 ft | 477 kts | 336° |
| 2026-05-04 12:14 | 39.83341 | 23.40933 | 14676 ft | 406 kts | 328° |
| 2026-05-04 12:15 | 39.85589 | 23.38918 | 14556 ft | 387 kts | 328° |
| 2026-05-04 12:15 | 39.87738 | 23.36984 | 14398 ft | 360 kts | 328° |
| 2026-05-04 12:15 | 39.89714 | 23.35198 | 14273 ft | 331 kts | 328° |
| 2026-05-04 12:15 | 39.91536 | 23.33550 | 14068 ft | 309 kts | 328° |
| 2026-05-04 12:16 | 39.93276 | 23.31982 | 13552 ft | 300 kts | 328° |
| 2026-05-04 12:16 | 39.94983 | 23.30451 | 12916 ft | 296 kts | 328° |
| 2026-05-04 12:16 | 39.96672 | 23.28939 | 12274 ft | 293 kts | 328° |
| 2026-05-04 12:16 | 39.98348 | 23.27441 | 11637 ft | 290 kts | 328° |
| 2026-05-04 12:17 | 40.00002 | 23.25958 | 11021 ft | 287 kts | 328° |
| 2026-05-04 12:17 | 40.01645 | 23.24484 | 10434 ft | 288 kts | 328° |
| 2026-05-04 12:17 | 40.03265 | 23.23028 | 10077 ft | 284 kts | 328° |
| 2026-05-04 12:17 | 40.04883 | 23.21569 | 9436 ft | 281 kts | 328° |
| 2026-05-04 12:18 | 40.06485 | 23.20118 | 8796 ft | 279 kts | 328° |
| 2026-05-04 12:18 | 40.08076 | 23.18676 | 8191 ft | 276 kts | 328° |
| 2026-05-04 12:18 | 40.09636 | 23.17264 | 7734 ft | 270 kts | 328° |
| 2026-05-04 12:18 | 40.11176 | 23.15871 | 7370 ft | 270 kts | 328° |
| 2026-05-04 12:19 | 40.12723 | 23.14475 | 7002 ft | 271 kts | 328° |
| 2026-05-04 12:19 | 40.14272 | 23.13075 | 6693 ft | 269 kts | 328° |
| 2026-05-04 12:19 | 40.15793 | 23.11701 | 6343 ft | 268 kts | 328° |
| 2026-05-04 12:19 | 40.17326 | 23.10317 | 5963 ft | 269 kts | 327° |
| 2026-05-04 12:20 | 40.18843 | 23.08943 | 5726 ft | 263 kts | 327° |
| 2026-05-04 12:20 | 40.20346 | 23.07590 | 5385 ft | 261 kts | 329° |
| 2026-05-04 12:20 | 40.21988 | 23.06609 | 5033 ft | 260 kts | 344° |
| 2026-05-04 12:20 | 40.23753 | 23.06038 | 4663 ft | 260 kts | 347° |
| 2026-05-04 12:21 | 40.25458 | 23.05503 | 4510 ft | 244 kts | 347° |
| 2026-05-04 12:21 | 40.27078 | 23.04993 | 4396 ft | 234 kts | 347° |
| 2026-05-04 12:21 | 40.28630 | 23.04505 | 4295 ft | 225 kts | 346° |
| 2026-05-04 12:21 | 40.30119 | 23.04039 | 4170 ft | 215 kts | 346° |
| 2026-05-04 12:22 | 40.31552 | 23.03588 | 4033 ft | 208 kts | 346° |
| 2026-05-04 12:22 | 40.32957 | 23.03143 | 3906 ft | 207 kts | 346° |
| 2026-05-04 12:22 | 40.34344 | 23.02701 | 3783 ft | 203 kts | 346° |
| 2026-05-04 12:22 | 40.35696 | 23.02274 | 3641 ft | 197 kts | 346° |
| 2026-05-04 12:23 | 40.37006 | 23.01861 | 3528 ft | 191 kts | 346° |
| 2026-05-04 12:23 | 40.38302 | 23.01450 | 3276 ft | 192 kts | 345° |
| 2026-05-04 12:23 | 40.39588 | 23.01040 | 2936 ft | 190 kts | 345° |
| 2026-05-04 12:23 | 40.40848 | 23.00638 | 2627 ft | 182 kts | 345° |
| 2026-05-04 12:24 | 40.42027 | 23.00264 | 2324 ft | 167 kts | 345° |
| 2026-05-04 12:24 | 40.43091 | 22.99928 | 2048 ft | 149 kts | 344° |
| 2026-05-04 12:24 | 40.44049 | 22.99619 | 1823 ft | 140 kts | 343° |
| 2026-05-04 12:24 | 40.44984 | 22.99304 | 1556 ft | 138 kts | 344° |
| 2026-05-04 12:25 | 40.45915 | 22.99021 | 1314 ft | 137 kts | 346° |
| 2026-05-04 12:25 | 40.46849 | 22.98763 | 1055 ft | 137 kts | 343° |
| 2026-05-04 12:25 | 40.47773 | 22.98444 | 819 ft | 138 kts | 343° |
| 2026-05-04 12:25 | 40.48705 | 22.98143 | 646 ft | 138 kts | 343° |
| 2026-05-04 12:26 | 40.49640 | 22.97843 | 372 ft | 138 kts | 343° |
| 2026-05-04 12:26 | 40.50576 | 22.97548 | 160 ft | 139 kts | 342° |
| 2026-05-04 12:26 | 40.51494 | 22.97256 | 40 ft | 127 kts | 342° |
| 2026-05-04 12:26 | 40.52225 | 22.97017 | 27 ft | 84 kts | 346° |
| 2026-05-04 12:27 | 40.52570 | 22.96906 | 29 ft | 31 kts | 346° |
| 2026-05-04 12:27 | 40.52677 | 22.96954 | 30 ft | 15 kts | 72° |
| 2026-05-04 12:27 | 40.52688 | 22.96997 | 29 ft | 0 kts | 74° |
| 2026-05-04 12:28 | 40.52689 | 22.97003 | 29 ft | 2 kts | 76° |
| 2026-05-04 12:28 | 40.52683 | 22.97037 | 29 ft | 6 kts | 120° |
| 2026-05-04 12:28 | 40.52616 | 22.97075 | 29 ft | 15 kts | 166° |
| 2026-05-04 12:29 | 40.52503 | 22.97111 | 29 ft | 18 kts | 166° |
| 2026-05-04 12:29 | 40.52395 | 22.97160 | 28 ft | 14 kts | 136° |
| 2026-05-04 12:29 | 40.52385 | 22.97227 | 28 ft | 0 kts | 79° |
| 2026-05-04 12:29 | 40.52388 | 22.97248 | 28 ft | 5 kts | 85° |
| 2026-05-04 12:30 | 40.52371 | 22.97296 | 28 ft | 7 kts | 130° |
| 2026-05-04 12:30 | 40.52333 | 22.97351 | 28 ft | 8 kts | 123° |
| 2026-05-04 12:30 | 40.52356 | 22.97403 | 28 ft | 7 kts | 44° |
| 2026-05-04 12:30 | 40.52394 | 22.97451 | 28 ft | 5 kts | 44° |
| 2026-05-04 12:31 | 40.52404 | 22.97464 | 28 ft | 0 kts | 45° |